createdAt,value
2022-10-05T00:00:32.443Z,5.51
2022-10-05T00:01:34.315Z,5.52
2022-10-05T00:02:32.289Z,5.55
2022-10-05T00:03:32.916Z,5.5
2022-10-05T00:04:32.542Z,5.55
2022-10-05T00:05:34.020Z,5.59
2022-10-05T00:06:32.353Z,5.53
2022-10-05T00:07:32.516Z,5.52
2022-10-05T00:08:35.282Z,5.53
2022-10-05T00:09:33.672Z,5.55
2022-10-05T00:10:32.959Z,5.54
2022-10-05T00:11:32.394Z,5.55
2022-10-05T00:12:32.382Z,5.55
2022-10-05T00:13:33.081Z,5.6
2022-10-05T00:14:35.035Z,5.56
2022-10-05T00:15:32.677Z,5.56
2022-10-05T00:16:34.563Z,5.54
2022-10-05T00:17:32.483Z,5.55
2022-10-05T00:18:32.704Z,5.52
2022-10-05T00:19:36.730Z,5.5
2022-10-05T00:20:33.370Z,5.46
2022-10-05T00:21:33.380Z,5.47
2022-10-05T00:22:33.634Z,5.5
2022-10-05T00:23:34.060Z,5.49
2022-10-05T00:24:33.520Z,5.46
2022-10-05T00:25:33.470Z,5.46
2022-10-05T00:26:33.634Z,5.43
2022-10-05T00:27:35.619Z,5.46
2022-10-05T00:28:33.812Z,5.43
2022-10-05T00:29:34.111Z,5.4
2022-10-05T00:30:33.813Z,5.39
2022-10-05T00:31:35.541Z,5.37
2022-10-05T00:32:33.489Z,5.39
2022-10-05T00:33:33.507Z,5.38
2022-10-05T00:34:33.928Z,5.4
2022-10-05T00:35:34.711Z,5.36
2022-10-05T00:36:33.634Z,5.38
2022-10-05T00:37:33.583Z,5.43
2022-10-05T00:38:33.649Z,5.36
2022-10-05T00:39:35.636Z,5.41
2022-10-05T00:40:45.472Z,5.39
2022-10-05T00:51:10.704Z,5.28
2022-10-05T00:58:28.490Z,5.27
2022-10-05T01:00:33.106Z,5.3
2022-10-05T01:01:36.662Z,5.26
2022-10-05T01:08:54.579Z,5.26
2022-10-05T01:11:54.438Z,5.28
2022-10-05T01:21:17.645Z,5.29
2022-10-05T01:32:44.459Z,5.27
2022-10-05T01:33:46.303Z,5.26
2022-10-05T01:39:00.655Z,5.2
2022-10-05T01:41:03.772Z,5.28
2022-10-05T01:42:08.594Z,5.27
2022-10-05T01:43:10.557Z,5.25
2022-10-05T01:44:11.836Z,5.19
2022-10-05T01:51:26.265Z,5.09
2022-10-05T01:56:39.442Z,5.08
2022-10-05T02:03:53.989Z,5.04
2022-10-05T02:05:02.605Z,5.06
2022-10-05T02:06:58.033Z,5.08
2022-10-05T02:08:00.198Z,5.11
2022-10-05T02:12:09.933Z,5.11
2022-10-05T02:13:10.239Z,5.08
2022-10-05T02:14:11.060Z,5.09
2022-10-05T02:15:13.534Z,4.95
2022-10-05T02:18:16.164Z,4.84
2022-10-05T02:20:23.396Z,4.79
2022-10-05T02:21:21.136Z,4.74
2022-10-05T02:23:26.891Z,4.69
2022-10-05T02:24:31.577Z,4.66
2022-10-05T02:25:31.093Z,4.68
2022-10-05T02:26:30.396Z,4.76
2022-10-05T02:27:30.681Z,4.77
2022-10-05T02:29:30.618Z,4.72
2022-10-05T02:30:31.363Z,4.79
2022-10-05T02:32:35.971Z,4.78
2022-10-05T02:33:33.591Z,4.69
2022-10-05T02:34:40.408Z,4.66
2022-10-05T02:35:37.068Z,4.63
2022-10-05T02:36:37.525Z,4.71
2022-10-05T02:40:54.259Z,4.55
2022-10-05T02:41:53.448Z,4.65
2022-10-05T02:51:25.983Z,4.43
2022-10-05T02:53:27.098Z,4.51
2022-10-05T02:55:34.274Z,4.45
2022-10-05T02:58:49.037Z,4.43
2022-10-05T03:06:03.713Z,4.54
2022-10-05T03:07:14.116Z,4.63
2022-10-05T03:08:09.655Z,4.52
2022-10-05T03:09:07.638Z,4.46
2022-10-05T03:10:09.498Z,4.52
2022-10-05T03:17:25.307Z,4.55
2022-10-05T03:26:45.707Z,4.49
2022-10-05T03:27:48.748Z,4.6
2022-10-05T03:32:03.393Z,4.51
2022-10-05T03:35:13.038Z,4.47
2022-10-05T03:36:18.090Z,4.42
2022-10-05T03:37:13.578Z,4.49
2022-10-05T03:39:22.079Z,4.44
2022-10-05T03:50:46.952Z,4.49
2022-10-05T03:51:48.200Z,4.45
2022-10-05T03:53:49.539Z,4.54
2022-10-05T03:54:52.703Z,4.48
2022-10-05T03:55:56.281Z,4.5
2022-10-05T03:56:58.175Z,4.45
2022-10-05T03:57:56.945Z,4.5
2022-10-05T04:01:03.532Z,4.55
2022-10-05T04:02:02.116Z,4.5
2022-10-05T04:04:04.122Z,4.54
2022-10-05T04:05:05.294Z,4.57
2022-10-05T04:06:07.111Z,4.48
2022-10-05T04:07:05.342Z,4.5
2022-10-05T04:10:12.155Z,4.53
2022-10-05T04:11:15.162Z,4.52
2022-10-05T04:14:21.792Z,4.66
2022-10-05T04:15:23.335Z,4.61
2022-10-05T04:16:25.430Z,4.6
2022-10-05T04:17:31.360Z,4.6
2022-10-05T04:18:36.846Z,4.65
2022-10-05T04:19:25.797Z,4.61
2022-10-05T04:20:29.119Z,4.62
2022-10-05T04:21:38.184Z,4.65
2022-10-05T04:22:40.646Z,4.67
2022-10-05T04:23:45.594Z,4.71
2022-10-05T04:25:43.399Z,4.77
2022-10-05T04:26:45.690Z,4.78
2022-10-05T04:29:50.284Z,4.87
2022-10-05T04:30:47.749Z,4.92
2022-10-05T04:32:52.841Z,4.98
2022-10-05T04:33:56.414Z,4.97
2022-10-05T04:36:58.865Z,5.07
2022-10-05T04:45:31.125Z,5.14
2022-10-05T04:48:37.474Z,5.13
2022-10-05T04:53:46.735Z,5.21
2022-10-05T04:55:52.977Z,5.24
2022-10-05T04:56:53.305Z,5.28
2022-10-05T05:03:10.685Z,5.47
2022-10-05T05:11:41.590Z,5.73
2022-10-05T05:16:01.055Z,5.85
2022-10-05T05:16:58.480Z,5.87
2022-10-05T05:23:20.930Z,5.92
2022-10-05T05:28:35.816Z,6.03
2022-10-05T05:32:42.893Z,6.06
2022-10-05T05:40:07.335Z,6.24
2022-10-05T05:43:00.182Z,6.29
2022-10-05T05:45:07.484Z,6.3
2022-10-05T05:46:12.833Z,6.28
2022-10-05T05:47:12.306Z,6.26
2022-10-05T05:48:15.268Z,6.34
2022-10-05T05:53:20.658Z,6.41
2022-10-05T05:54:27.200Z,6.43
2022-10-05T05:55:24.413Z,6.41
2022-10-05T05:56:27.191Z,6.45
2022-10-05T05:57:34.882Z,6.43
2022-10-05T05:58:33.671Z,6.4
2022-10-05T05:59:38.099Z,6.45
2022-10-05T06:00:40.834Z,6.47
2022-10-05T06:01:44.302Z,6.48
2022-10-05T06:02:45.830Z,6.48
2022-10-05T06:05:47.992Z,6.54
2022-10-05T06:06:48.328Z,6.56
2022-10-05T06:07:44.990Z,6.57
2022-10-05T06:08:47.156Z,6.58
2022-10-05T06:10:49.288Z,6.59
2022-10-05T06:11:58.057Z,6.6
2022-10-05T06:12:52.224Z,6.65
2022-10-05T06:13:50.150Z,6.68
2022-10-05T06:14:56.386Z,6.7
2022-10-05T06:15:59.820Z,6.71
2022-10-05T06:17:03.621Z,6.71
2022-10-05T06:18:02.777Z,6.67
2022-10-05T06:19:05.334Z,6.74
2022-10-05T06:20:05.518Z,6.73
2022-10-05T06:23:11.619Z,6.79
2022-10-05T06:24:18.194Z,6.83
2022-10-05T06:26:22.432Z,6.91
2022-10-05T06:28:16.513Z,6.95
2022-10-05T06:29:22.637Z,6.92
2022-10-05T06:30:19.008Z,6.93
2022-10-05T06:31:28.458Z,6.98
2022-10-05T06:42:53.521Z,7.25
2022-10-05T06:43:56.814Z,7.22
2022-10-05T06:45:01.836Z,7.23
2022-10-05T06:48:11.131Z,7.26
2022-10-05T06:50:18.763Z,7.34
2022-10-05T06:52:26.377Z,7.3
2022-10-05T06:56:37.755Z,7.4
2022-10-05T07:00:50.397Z,7.57
2022-10-05T07:08:11.628Z,7.52
2022-10-05T07:09:20.672Z,7.55
2022-10-05T07:23:49.294Z,7.61
2022-10-05T07:25:53.524Z,7.63
2022-10-05T07:31:06.454Z,7.67
2022-10-05T07:32:10.570Z,7.62
2022-10-05T07:33:12.666Z,7.74
2022-10-05T07:37:26.760Z,7.71
2022-10-05T07:40:32.403Z,7.68
2022-10-05T07:44:01.470Z,7.66
2022-10-05T07:44:43.298Z,7.66
2022-10-05T07:46:54.568Z,7.64
2022-10-05T07:47:51.323Z,7.69
2022-10-05T07:55:03.335Z,7.67
2022-10-05T07:56:02.724Z,7.63
2022-10-05T08:00:10.525Z,7.72
2022-10-05T08:04:18.448Z,7.77
2022-10-05T08:05:21.214Z,7.74
2022-10-05T08:07:19.138Z,7.72
2022-10-05T08:11:32.226Z,7.71
2022-10-05T08:12:31.013Z,7.68
2022-10-05T08:16:37.483Z,7.72
2022-10-05T08:17:39.434Z,7.73
2022-10-05T08:21:43.150Z,7.78
2022-10-05T08:22:45.826Z,7.75
2022-10-05T08:23:47.056Z,7.8
2022-10-05T08:24:53.177Z,7.8
2022-10-05T08:27:53.902Z,7.84
2022-10-05T08:31:00.502Z,7.84
2022-10-05T08:33:12.191Z,7.84
2022-10-05T08:36:10.627Z,7.9
2022-10-05T08:38:16.942Z,7.98
2022-10-05T08:39:17.051Z,8
2022-10-05T09:00:22.012Z,8.07
2022-10-05T09:02:25.591Z,8
2022-10-05T09:20:09.658Z,8.1
2022-10-05T09:21:13.666Z,8.11
2022-10-05T09:27:17.188Z,8.18
2022-10-05T09:34:39.173Z,8.43
2022-10-05T09:49:17.005Z,8.86
2022-10-05T10:16:29.543Z,8.93
2022-10-05T10:34:10.254Z,9.38
2022-10-05T10:38:19.014Z,9.35
2022-10-05T10:47:38.738Z,9.42
2022-10-05T10:54:58.506Z,9.51
2022-10-05T10:56:53.611Z,9.31
2022-10-05T11:24:10.185Z,9.6
2022-10-05T11:31:30.482Z,9.83
2022-10-05T11:51:24.050Z,9.75
2022-10-05T11:55:35.677Z,9.78
2022-10-05T11:56:41.092Z,9.81
2022-10-05T12:00:42.584Z,9.76
2022-10-05T12:20:22.948Z,9.89
2022-10-05T12:21:27.348Z,9.86
2022-10-05T12:27:37.735Z,9.91
2022-10-05T12:29:41.766Z,9.88
2022-10-05T12:32:50.062Z,9.88
2022-10-05T12:35:52.795Z,9.87
2022-10-05T12:37:09.269Z,9.89
2022-10-05T12:50:25.742Z,9.9
2022-10-05T12:51:22.207Z,9.9
2022-10-05T12:53:32.803Z,9.91
2022-10-05T12:54:31.701Z,9.89
2022-10-05T12:55:27.201Z,9.91
2022-10-05T12:56:36.627Z,9.91
2022-10-05T12:57:41.760Z,9.9
2022-10-05T13:03:46.004Z,9.89
2022-10-05T13:04:51.006Z,9.87
2022-10-05T13:10:50.448Z,9.89
2022-10-05T13:11:50.329Z,9.87
2022-10-05T13:15:06.096Z,9.9
2022-10-05T13:20:19.346Z,9.93
2022-10-05T13:23:28.070Z,9.9
2022-10-05T13:27:34.190Z,9.95
2022-10-05T13:28:37.085Z,9.96
2022-10-05T13:29:51.032Z,9.99
2022-10-05T13:30:36.742Z,10.01
2022-10-05T13:33:50.744Z,10.06
2022-10-05T13:34:52.826Z,10.1
2022-10-05T13:42:12.377Z,10.07
2022-10-05T13:44:13.988Z,10.08
2022-10-05T13:45:21.425Z,10.07
2022-10-05T13:47:18.730Z,10.05
2022-10-05T13:50:28.511Z,10.05
2022-10-05T13:51:24.685Z,10.04
2022-10-05T13:54:31.985Z,10.02
2022-10-05T14:01:47.353Z,10.05
2022-10-05T14:02:45.567Z,10.07
2022-10-05T14:04:47.717Z,10.08
2022-10-05T14:06:47.865Z,10.08
2022-10-05T14:08:50.851Z,10.08
2022-10-05T14:09:48.761Z,10.07
2022-10-05T14:10:47.908Z,10.07
2022-10-05T14:11:50.249Z,10.08
2022-10-05T14:13:49.930Z,10.07
2022-10-05T14:14:51.374Z,10.09
2022-10-05T14:16:55.365Z,10.11
2022-10-05T14:17:53.879Z,10.12
2022-10-05T14:18:56.236Z,10.06
2022-10-05T14:19:56.528Z,10.04
2022-10-05T14:21:01.241Z,10.09
2022-10-05T14:22:02.252Z,10.1
2022-10-05T14:23:05.075Z,10.1
2022-10-05T14:25:13.788Z,10.09
2022-10-05T14:29:17.979Z,10.14
2022-10-05T14:30:23.557Z,10.16
2022-10-05T14:32:24.140Z,10.18
2022-10-05T14:33:23.384Z,10.19
2022-10-05T14:34:35.875Z,10.2
2022-10-05T14:36:34.815Z,10.22
2022-10-05T14:37:42.085Z,10.23
2022-10-05T14:40:36.997Z,10.21
2022-10-05T14:41:36.710Z,10.24
2022-10-05T14:43:37.840Z,10.22
2022-10-05T14:44:37.786Z,10.22
2022-10-05T14:46:49.116Z,10.25
2022-10-05T14:47:51.057Z,10.27
2022-10-05T14:48:43.630Z,10.28
2022-10-05T14:49:50.107Z,10.25
2022-10-05T14:50:54.175Z,10.27
2022-10-05T14:51:51.411Z,10.26
2022-10-05T14:54:00.945Z,10.35
2022-10-05T14:54:57.610Z,10.29
2022-10-05T15:03:19.131Z,10.29
2022-10-05T15:05:21.212Z,10.33
2022-10-05T15:10:36.158Z,10.38
2022-10-05T15:13:40.715Z,10.33
2022-10-05T15:14:39.906Z,10.31
2022-10-05T15:16:41.749Z,10.34
2022-10-05T15:17:45.796Z,10.36
2022-10-05T15:19:55.397Z,10.37
2022-10-05T15:27:02.622Z,10.37
2022-10-05T15:42:38.452Z,10.48
2022-10-05T15:45:43.223Z,10.51
2022-10-05T15:47:51.701Z,10.48
2022-10-05T15:50:59.978Z,10.55
2022-10-05T15:52:03.510Z,10.57
2022-10-05T15:53:10.597Z,10.54
2022-10-05T15:54:10.102Z,10.53
2022-10-05T16:00:21.381Z,10.61
2022-10-05T16:10:43.923Z,10.56
2022-10-05T16:12:47.950Z,10.62
2022-10-05T16:13:54.213Z,10.57
2022-10-05T16:14:59.089Z,10.66
2022-10-05T16:15:49.964Z,10.58
2022-10-05T16:17:00.096Z,10.59
2022-10-05T16:18:52.012Z,10.61
2022-10-05T16:27:07.512Z,10.64
2022-10-05T16:29:11.874Z,10.63
2022-10-05T16:30:22.002Z,10.64
2022-10-05T16:31:16.145Z,10.63
2022-10-05T16:32:18.925Z,10.61
2022-10-05T16:33:23.247Z,10.65
2022-10-05T16:36:29.812Z,10.59
2022-10-05T16:40:44.287Z,10.63
2022-10-05T16:44:48.243Z,10.6
2022-10-05T16:45:49.423Z,10.61
2022-10-05T16:46:50.906Z,10.62
2022-10-05T16:48:53.836Z,10.63
2022-10-05T16:52:56.332Z,10.64
2022-10-05T16:54:58.811Z,10.57
2022-10-05T16:56:00.558Z,10.63
2022-10-05T16:57:59.513Z,10.71
2022-10-05T17:02:12.122Z,10.64
2022-10-05T17:04:19.597Z,10.67
2022-10-05T17:05:21.440Z,10.66
2022-10-05T17:17:58.660Z,10.59
2022-10-05T17:20:12.702Z,10.63
2022-10-05T17:24:29.026Z,10.62
2022-10-05T17:25:24.005Z,10.62
2022-10-05T17:29:43.464Z,10.58
2022-10-05T17:30:38.113Z,10.62
2022-10-05T17:32:38.276Z,10.61
2022-10-05T17:34:39.053Z,10.63
2022-10-05T17:36:45.667Z,10.6
2022-10-05T17:37:43.601Z,10.68
2022-10-05T17:38:46.866Z,10.66
2022-10-05T17:39:52.249Z,10.6
2022-10-05T17:41:48.559Z,10.63
2022-10-05T17:42:56.858Z,10.62
2022-10-05T17:44:59.844Z,10.62
2022-10-05T17:46:00.978Z,10.6
2022-10-05T17:46:58.845Z,10.63
2022-10-05T17:48:04.881Z,10.62
2022-10-05T17:49:11.211Z,10.61
2022-10-05T17:50:11.259Z,10.65
2022-10-05T17:51:07.392Z,10.67
2022-10-05T17:54:18.092Z,10.62
2022-10-05T17:55:20.714Z,10.62
2022-10-05T17:56:12.581Z,10.68
2022-10-05T17:57:23.899Z,10.67
2022-10-05T18:00:31.928Z,10.64
2022-10-05T18:04:37.981Z,10.69
2022-10-05T18:05:34.180Z,10.68
2022-10-05T18:06:35.140Z,10.65
2022-10-05T18:07:35.698Z,10.65
2022-10-05T18:08:37.977Z,10.66
2022-10-05T18:09:35.699Z,10.66
2022-10-05T18:10:39.000Z,10.67
2022-10-05T18:11:41.399Z,10.66
2022-10-05T18:15:48.784Z,10.68
2022-10-05T18:22:00.113Z,10.67
2022-10-05T18:25:04.475Z,10.65
2022-10-05T18:29:18.658Z,10.69
2022-10-05T18:30:21.055Z,10.75
2022-10-05T18:34:30.599Z,10.7
2022-10-05T18:35:26.089Z,10.72
2022-10-05T18:43:46.854Z,10.69
2022-10-05T18:44:52.187Z,10.75
2022-10-05T18:50:02.802Z,10.74
2022-10-05T18:59:30.474Z,10.72
2022-10-05T19:00:33.542Z,10.75
2022-10-05T19:02:47.208Z,10.74
2022-10-05T19:03:46.962Z,10.73
2022-10-05T19:05:52.112Z,10.81
2022-10-05T19:06:54.240Z,10.81
2022-10-05T19:08:02.073Z,10.79
2022-10-05T19:09:03.976Z,10.79
2022-10-05T19:10:02.061Z,10.76
2022-10-05T19:15:15.863Z,10.76
2022-10-05T19:18:25.482Z,10.83
2022-10-05T19:23:41.696Z,10.72
2022-10-05T19:26:49.806Z,10.74
2022-10-05T19:29:57.129Z,10.77
2022-10-05T19:35:08.753Z,10.74
2022-10-05T19:40:21.377Z,10.72
2022-10-05T19:41:21.443Z,10.76
2022-10-05T19:42:25.957Z,10.72
2022-10-05T19:45:27.344Z,10.75
2022-10-05T19:48:41.048Z,10.74
2022-10-05T19:50:34.561Z,10.74
2022-10-05T19:51:35.548Z,10.73
2022-10-05T19:52:40.462Z,10.72
2022-10-05T19:53:37.722Z,10.74
2022-10-05T19:54:37.492Z,10.78
2022-10-05T19:55:39.283Z,10.81
2022-10-05T19:56:46.560Z,10.77
2022-10-05T19:57:47.537Z,10.81
2022-10-05T19:58:39.550Z,10.78
2022-10-05T19:59:44.282Z,10.76
2022-10-05T20:00:41.233Z,10.72
2022-10-05T20:01:43.621Z,10.74
2022-10-05T20:02:42.144Z,10.73
2022-10-05T20:03:47.006Z,10.72
2022-10-05T20:04:45.255Z,10.71
2022-10-05T20:05:43.947Z,10.71
2022-10-05T20:06:43.757Z,10.74
2022-10-05T20:07:43.763Z,10.78
2022-10-05T20:08:45.086Z,10.76
2022-10-05T20:09:50.589Z,10.78
2022-10-05T20:11:51.844Z,10.73
2022-10-05T20:12:52.247Z,10.73
2022-10-05T20:22:26.636Z,10.7
2022-10-05T20:23:25.822Z,10.69
2022-10-05T20:24:26.337Z,10.77
2022-10-05T20:25:29.105Z,10.75
2022-10-05T20:28:33.573Z,10.79
2022-10-05T20:29:34.774Z,10.75
2022-10-05T20:30:33.435Z,10.76
2022-10-05T20:31:33.517Z,10.78
2022-10-05T20:32:33.683Z,10.79
2022-10-05T20:33:33.652Z,10.79
2022-10-05T20:34:34.480Z,10.75
2022-10-05T20:35:33.522Z,10.75
2022-10-05T20:36:33.721Z,10.76
2022-10-05T20:37:33.963Z,10.73
2022-10-05T20:38:36.298Z,10.71
2022-10-05T20:39:36.156Z,10.73
2022-10-05T20:40:36.185Z,10.72
2022-10-05T20:41:36.214Z,10.72
2022-10-05T20:42:36.290Z,10.74
2022-10-05T20:43:36.259Z,10.8
2022-10-05T20:44:36.865Z,10.77
2022-10-05T20:45:36.266Z,10.76
2022-10-05T20:46:36.324Z,10.72
2022-10-05T20:47:36.569Z,10.72
2022-10-05T20:48:36.345Z,10.76
2022-10-05T20:49:37.273Z,10.75
2022-10-05T20:50:36.363Z,10.82
2022-10-05T20:51:37.162Z,10.8
2022-10-05T20:52:37.375Z,10.79
2022-10-05T20:53:36.419Z,10.82
2022-10-05T20:54:36.885Z,10.79
2022-10-05T20:55:36.434Z,10.75
2022-10-05T20:56:36.460Z,10.78
2022-10-05T20:57:37.115Z,10.76
2022-10-05T20:58:36.451Z,10.74
2022-10-05T20:59:36.747Z,10.78
2022-10-05T21:00:36.547Z,10.85
2022-10-05T21:01:36.528Z,10.82
2022-10-05T21:02:36.544Z,10.79
2022-10-05T21:03:36.583Z,10.78
2022-10-05T21:04:43.092Z,10.77
2022-10-05T21:05:39.555Z,10.74
2022-10-05T21:06:39.511Z,10.77
2022-10-05T21:07:39.536Z,10.76
2022-10-05T21:08:39.573Z,10.74
2022-10-05T21:09:39.580Z,10.74
2022-10-05T21:10:39.562Z,10.73
2022-10-05T21:11:39.663Z,10.77
2022-10-05T21:12:39.859Z,10.79
2022-10-05T21:13:40.369Z,10.72
2022-10-05T21:14:39.641Z,10.75
2022-10-05T21:15:39.663Z,10.74
2022-10-05T21:16:39.961Z,10.71
2022-10-05T21:17:39.672Z,10.72
2022-10-05T21:18:40.125Z,10.76
2022-10-05T21:19:39.791Z,10.74
2022-10-05T21:20:39.746Z,10.81
2022-10-05T21:21:44.143Z,10.78
2022-10-05T21:22:40.331Z,10.76
2022-10-05T21:23:40.634Z,10.74
2022-10-05T21:24:40.792Z,10.79
2022-10-05T21:25:40.403Z,10.76
2022-10-05T21:26:40.996Z,10.73
2022-10-05T21:27:40.429Z,10.73
2022-10-05T21:28:40.951Z,10.76
2022-10-05T21:29:40.447Z,10.71
2022-10-05T21:30:40.468Z,10.75
2022-10-05T21:31:40.777Z,10.69
2022-10-05T21:32:44.239Z,10.76
2022-10-05T21:33:40.925Z,10.76
2022-10-05T21:34:41.209Z,10.75
2022-10-05T21:35:40.978Z,10.77
2022-10-05T21:36:41.907Z,10.71
2022-10-05T21:37:40.981Z,10.69
2022-10-05T21:38:41.628Z,10.71
2022-10-05T21:39:41.019Z,10.75
2022-10-05T21:40:41.048Z,10.73
2022-10-05T21:41:41.028Z,10.7
2022-10-05T21:42:41.103Z,10.71
2022-10-05T21:43:41.512Z,10.71
2022-10-05T21:44:41.160Z,10.74
2022-10-05T21:45:42.436Z,10.77
2022-10-05T21:46:41.332Z,10.78
2022-10-05T21:47:41.179Z,10.75
2022-10-05T21:48:41.540Z,10.74
2022-10-05T21:49:41.700Z,10.79
2022-10-05T21:50:41.475Z,10.76
2022-10-05T21:51:41.363Z,10.75
2022-10-05T21:52:41.488Z,10.76
2022-10-05T21:53:42.593Z,10.76
2022-10-05T21:54:41.330Z,10.73
2022-10-05T21:55:43.301Z,10.72
2022-10-05T21:56:46.210Z,10.74
2022-10-05T21:57:42.825Z,10.72
2022-10-05T21:58:43.896Z,10.73
2022-10-05T21:59:43.080Z,10.76
2022-10-05T22:00:42.544Z,10.73
2022-10-05T22:01:42.485Z,10.71
2022-10-05T22:02:42.669Z,10.7
2022-10-05T22:03:42.504Z,10.79
2022-10-05T22:04:42.514Z,10.79
2022-10-05T22:05:42.637Z,10.71
2022-10-05T22:06:42.800Z,10.68
2022-10-05T22:07:42.539Z,10.71
2022-10-05T22:08:42.594Z,10.78
2022-10-05T22:09:42.624Z,10.73
2022-10-05T22:10:42.650Z,10.75
2022-10-05T22:11:45.652Z,10.74
2022-10-05T22:12:42.662Z,10.72
2022-10-05T22:13:47.369Z,10.7
2022-10-05T22:14:43.562Z,10.73
2022-10-05T22:15:43.628Z,10.72
2022-10-05T22:16:43.845Z,10.7
2022-10-05T22:17:43.782Z,10.68
2022-10-05T22:18:43.918Z,10.73
2022-10-05T22:19:43.644Z,10.73
2022-10-05T22:20:44.271Z,10.73
2022-10-05T22:21:43.688Z,10.71
2022-10-05T22:22:43.687Z,10.76
2022-10-05T22:23:45.122Z,10.75
2022-10-05T22:24:43.702Z,10.72
2022-10-05T22:25:43.741Z,10.67
2022-10-05T22:26:45.615Z,10.68
2022-10-05T22:27:44.372Z,10.66
2022-10-05T22:28:44.238Z,10.66
2022-10-05T22:29:44.190Z,10.71
2022-10-05T22:30:44.372Z,10.69
2022-10-05T22:31:44.899Z,10.71
2022-10-05T22:32:44.182Z,10.7
2022-10-05T22:33:43.865Z,10.73
2022-10-05T22:34:43.877Z,10.75
2022-10-05T22:35:43.913Z,10.72
2022-10-05T22:36:44.458Z,10.72
2022-10-05T22:37:44.969Z,10.68
2022-10-05T22:38:44.254Z,10.73
2022-10-05T22:39:43.998Z,10.75
2022-10-05T22:40:43.973Z,10.76
2022-10-05T22:41:44.232Z,10.75
2022-10-05T22:42:44.023Z,10.66
2022-10-05T22:43:44.068Z,10.68
2022-10-05T22:44:44.043Z,10.75
2022-10-05T22:45:44.110Z,10.72
2022-10-05T22:46:44.087Z,10.68
2022-10-05T22:47:44.099Z,10.69
2022-10-05T22:48:44.321Z,10.76
2022-10-05T22:49:44.131Z,10.67
2022-10-05T22:50:44.562Z,10.69
2022-10-05T22:51:44.157Z,10.67
2022-10-05T22:52:44.210Z,10.67
2022-10-05T22:53:44.219Z,10.68
2022-10-05T22:54:44.196Z,10.67
2022-10-05T22:55:44.208Z,10.64
2022-10-05T22:56:44.279Z,10.64
2022-10-05T22:57:44.240Z,10.65
2022-10-05T22:58:44.514Z,10.64
2022-10-05T22:59:44.271Z,10.67
2022-10-05T23:00:58.037Z,10.68
2022-10-05T23:01:45.436Z,10.72
2022-10-05T23:02:45.524Z,10.62
2022-10-05T23:03:45.425Z,10.63
2022-10-05T23:04:46.167Z,10.75
2022-10-05T23:05:45.473Z,10.74
2022-10-05T23:06:45.503Z,10.77
2022-10-05T23:07:46.003Z,10.7
2022-10-05T23:08:46.464Z,10.67
2022-10-05T23:09:45.523Z,10.65
2022-10-05T23:10:45.541Z,10.65
2022-10-05T23:11:45.566Z,10.65
2022-10-05T23:12:57.133Z,10.66
2022-10-05T23:13:46.449Z,10.66
2022-10-05T23:14:46.425Z,10.68
2022-10-05T23:15:46.452Z,10.67
2022-10-05T23:16:46.821Z,10.74
2022-10-05T23:17:46.509Z,10.81
2022-10-05T23:18:50.297Z,10.75
2022-10-05T23:19:46.967Z,10.69
2022-10-05T23:20:52.510Z,10.76
2022-10-05T23:21:49.172Z,10.75
2022-10-05T23:22:49.192Z,10.8
2022-10-05T23:23:49.949Z,10.74
2022-10-05T23:24:49.240Z,10.74
2022-10-05T23:25:49.922Z,10.77
2022-10-05T23:26:49.235Z,10.8
2022-10-05T23:27:49.230Z,10.71
2022-10-05T23:28:49.693Z,10.73
2022-10-05T23:29:49.304Z,10.77
2022-10-05T23:30:49.415Z,10.75
2022-10-05T23:31:49.349Z,10.72
2022-10-05T23:32:49.311Z,10.76
2022-10-05T23:33:49.513Z,10.75
2022-10-05T23:34:49.730Z,10.76
2022-10-05T23:35:56.551Z,10.76
2022-10-05T23:36:53.575Z,10.71
2022-10-05T23:37:53.271Z,10.68
2022-10-05T23:38:53.663Z,10.67
2022-10-05T23:39:53.240Z,10.72
2022-10-05T23:40:53.695Z,10.73
2022-10-05T23:41:53.280Z,10.71
2022-10-05T23:42:53.259Z,10.68
2022-10-05T23:43:53.291Z,10.76
2022-10-05T23:44:53.305Z,10.68
2022-10-05T23:45:53.418Z,10.7
2022-10-05T23:46:53.366Z,10.67
2022-10-05T23:47:53.334Z,10.67
2022-10-05T23:48:53.336Z,10.65
2022-10-05T23:49:53.370Z,10.66
2022-10-05T23:50:53.876Z,10.62
2022-10-05T23:51:53.373Z,10.63
2022-10-05T23:52:53.472Z,10.63
2022-10-05T23:53:53.644Z,10.66
2022-10-05T23:54:53.395Z,10.65
2022-10-05T23:55:54.091Z,10.66
2022-10-05T23:56:53.591Z,10.65
2022-10-05T23:57:53.549Z,10.66
2022-10-05T23:58:53.514Z,10.68
2022-10-05T23:59:53.503Z,10.69
